sensor_id;sensor_type;location;lat;lon;timestamp;temperature;humidity
7206;DHT22;3644;53.480;10.004;2024-03-29T06:49:45;10.20;99.90
7206;DHT22;3644;53.480;10.004;2024-03-29T06:52:11;10.20;99.90
7206;DHT22;3644;53.480;10.004;2024-03-29T06:54:36;10.10;99.90
7206;DHT22;3644;53.480;10.004;2024-03-29T06:57:02;10.30;99.90
7206;DHT22;3644;53.480;10.004;2024-03-29T06:59:28;10.20;99.90
7206;DHT22;3644;53.480;10.004;2024-03-29T07:01:54;10.40;99.90
7206;DHT22;3644;53.480;10.004;2024-03-29T07:04:24;10.50;99.90
7206;DHT22;3644;53.480;10.004;2024-03-29T07:06:50;10.50;99.90
7206;DHT22;3644;53.480;10.004;2024-03-29T07:09:22;10.50;99.90
7206;DHT22;3644;53.480;10.004;2024-03-29T07:11:49;10.60;99.90
7206;DHT22;3644;53.480;10.004;2024-03-29T07:14:16;10.80;99.90
7206;DHT22;3644;53.480;10.004;2024-03-29T07:16:42;11.20;99.90
7206;DHT22;3644;53.480;10.004;2024-03-29T07:19:08;11.30;99.90
7206;DHT22;3644;53.480;10.004;2024-03-29T07:21:34;11.40;99.90
7206;DHT22;3644;53.480;10.004;2024-03-29T07:23:59;11.50;99.90
7206;DHT22;3644;53.480;10.004;2024-03-29T07:26:25;11.70;99.90
7206;DHT22;3644;53.480;10.004;2024-03-29T07:28:50;11.60;99.90
7206;DHT22;3644;53.480;10.004;2024-03-29T07:31:16;11.50;99.90
7206;DHT22;3644;53.480;10.004;2024-03-29T07:33:41;11.40;99.90
7206;DHT22;3644;53.480;10.004;2024-03-29T07:36:07;11.40;99.90
7206;DHT22;3644;53.480;10.004;2024-03-29T07:38:35;11.40;99.90
7206;DHT22;3644;53.480;10.004;2024-03-29T07:41:00;11.30;99.90
7206;DHT22;3644;53.480;10.004;2024-03-29T07:43:26;11.30;99.90
7206;DHT22;3644;53.480;10.004;2024-03-29T07:45:51;11.30;99.90
7206;DHT22;3644;53.480;10.004;2024-03-29T07:48:18;11.30;99.90
7206;DHT22;3644;53.480;10.004;2024-03-29T07:50:44;11.30;99.90
7206;DHT22;3644;53.480;10.004;2024-03-29T07:53:10;11.30;99.90
7206;DHT22;3644;53.480;10.004;2024-03-29T07:55:38;11.50;99.90
7206;DHT22;3644;53.480;10.004;2024-03-29T07:58:04;11.50;99.90
7206;DHT22;3644;53.480;10.004;2024-03-29T08:00:33;11.60;99.90
7206;DHT22;3644;53.480;10.004;2024-03-29T08:02:59;11.80;99.90
7206;DHT22;3644;53.480;10.004;2024-03-29T08:05:25;11.70;99.90
7206;DHT22;3644;53.480;10.004;2024-03-29T08:07:51;11.70;99.90
7206;DHT22;3644;53.480;10.004;2024-03-29T08:10:17;11.90;99.90
7206;DHT22;3644;53.480;10.004;2024-03-29T08:12:42;12.00;99.90
7206;DHT22;3644;53.480;10.004;2024-03-29T08:15:08;12.00;99.90
7206;DHT22;3644;53.480;10.004;2024-03-29T08:17:34;11.90;99.90
7206;DHT22;3644;53.480;10.004;2024-03-29T08:20:00;11.80;99.90
7206;DHT22;3644;53.480;10.004;2024-03-29T08:22:25;11.80;99.90
7206;DHT22;3644;53.480;10.004;2024-03-29T08:24:51;11.90;99.90
7206;DHT22;3644;53.480;10.004;2024-03-29T08:27:16;12.00;99.90
7206;DHT22;3644;53.480;10.004;2024-03-29T08:29:43;12.30;99.90
7206;DHT22;3644;53.480;10.004;2024-03-29T08:32:08;12.30;99.90
7206;DHT22;3644;53.480;10.004;2024-03-29T08:34:38;12.40;99.90
7206;DHT22;3644;53.480;10.004;2024-03-29T08:37:04;12.40;99.90
7206;DHT22;3644;53.480;10.004;2024-03-29T08:39:31;12.50;99.90
7206;DHT22;3644;53.480;10.004;2024-03-29T08:41:57;12.70;99.90
7206;DHT22;3644;53.480;10.004;2024-03-29T08:44:23;12.70;99.90
7206;DHT22;3644;53.480;10.004;2024-03-29T08:46:50;12.80;99.90
7206;DHT22;3644;53.480;10.004;2024-03-29T08:49:15;12.90;99.90
7206;DHT22;3644;53.480;10.004;2024-03-29T08:51:41;12.80;99.90
7206;DHT22;3644;53.480;10.004;2024-03-29T08:54:06;12.80;99.90
7206;DHT22;3644;53.480;10.004;2024-03-29T08:56:32;12.90;99.90
7206;DHT22;3644;53.480;10.004;2024-03-29T08:59:00;13.10;99.90
7206;DHT22;3644;53.480;10.004;2024-03-29T09:01:28;13.10;99.90
7206;DHT22;3644;53.480;10.004;2024-03-29T09:03:53;13.20;99.90
7206;DHT22;3644;53.480;10.004;2024-03-29T09:06:19;13.20;99.90
7206;DHT22;3644;53.480;10.004;2024-03-29T09:08:45;13.10;99.90
7206;DHT22;3644;53.480;10.004;2024-03-29T09:11:10;13.10;99.90
7206;DHT22;3644;53.480;10.004;2024-03-29T09:13:36;13.10;99.90
7206;DHT22;3644;53.480;10.004;2024-03-29T09:16:02;13.30;99.90
7206;DHT22;3644;53.480;10.004;2024-03-29T09:18:28;13.30;99.90
7206;DHT22;3644;53.480;10.004;2024-03-29T09:20:57;13.50;99.90
7206;DHT22;3644;53.480;10.004;2024-03-29T09:23:25;13.50;99.90
7206;DHT22;3644;53.480;10.004;2024-03-29T09:25:51;13.20;99.90
7206;DHT22;3644;53.480;10.004;2024-03-29T09:28:16;13.20;99.90
7206;DHT22;3644;53.480;10.004;2024-03-29T09:30:42;13.20;99.90
7206;DHT22;3644;53.480;10.004;2024-03-29T09:33:07;13.30;99.90
7206;DHT22;3644;53.480;10.004;2024-03-29T09:35:35;13.40;99.90
7206;DHT22;3644;53.480;10.004;2024-03-29T09:38:01;13.30;99.90
7206;DHT22;3644;53.480;10.004;2024-03-29T09:40:29;13.10;99.90
7206;DHT22;3644;53.480;10.004;2024-03-29T09:42:56;13.20;99.90
7206;DHT22;3644;53.480;10.004;2024-03-29T09:45:29;13.30;99.90
7206;DHT22;3644;53.480;10.004;2024-03-29T09:47:59;13.40;99.90
7206;DHT22;3644;53.480;10.004;2024-03-29T09:50:26;13.50;99.90
7206;DHT22;3644;53.480;10.004;2024-03-29T09:52:52;13.50;99.90
7206;DHT22;3644;53.480;10.004;2024-03-29T09:55:18;13.60;99.90
7206;DHT22;3644;53.480;10.004;2024-03-29T09:57:45;13.70;99.90
7206;DHT22;3644;53.480;10.004;2024-03-29T10:00:12;13.70;99.90
7206;DHT22;3644;53.480;10.004;2024-03-29T10:02:38;13.70;99.90
7206;DHT22;3644;53.480;10.004;2024-03-29T10:05:07;13.60;99.90
7206;DHT22;3644;53.480;10.004;2024-03-29T10:07:33;13.50;99.90
7206;DHT22;3644;53.480;10.004;2024-03-29T10:10:01;13.50;99.90
7206;DHT22;3644;53.480;10.004;2024-03-29T10:12:28;13.20;99.90
7206;DHT22;3644;53.480;10.004;2024-03-29T10:14:53;13.20;99.90
7206;DHT22;3644;53.480;10.004;2024-03-29T10:17:25;13.20;99.90
7206;DHT22;3644;53.480;10.004;2024-03-29T10:19:50;13.10;99.90
7206;DHT22;3644;53.480;10.004;2024-03-29T10:22:16;13.10;99.90
7206;DHT22;3644;53.480;10.004;2024-03-29T10:24:42;13.10;99.90
7206;DHT22;3644;53.480;10.004;2024-03-29T10:27:08;13.20;99.90
7206;DHT22;3644;53.480;10.004;2024-03-29T10:29:33;13.30;99.90
7206;DHT22;3644;53.480;10.004;2024-03-29T10:32:00;13.30;99.90
7206;DHT22;3644;53.480;10.004;2024-03-29T10:34:26;13.50;99.90
7206;DHT22;3644;53.480;10.004;2024-03-29T10:36:52;13.60;99.90
7206;DHT22;3644;53.480;10.004;2024-03-29T10:39:18;13.60;99.90
7206;DHT22;3644;53.480;10.004;2024-03-29T10:41:46;13.60;99.90
7206;DHT22;3644;53.480;10.004;2024-03-29T10:44:12;13.70;99.90
7206;DHT22;3644;53.480;10.004;2024-03-29T10:46:38;13.70;99.90
7206;DHT22;3644;53.480;10.004;2024-03-29T10:49:09;13.80;99.90
7206;DHT22;3644;53.480;10.004;2024-03-29T10:51:40;13.90;99.90
7206;DHT22;3644;53.480;10.004;2024-03-29T10:54:09;13.90;99.90
7206;DHT22;3644;53.480;10.004;2024-03-29T10:56:36;13.90;99.90
7206;DHT22;3644;53.480;10.004;2024-03-29T10:59:09;13.90;99.90
7206;DHT22;3644;53.480;10.004;2024-03-29T11:01:38;14.00;99.90
7206;DHT22;3644;53.480;10.004;2024-03-29T11:04:13;14.00;99.90
7206;DHT22;3644;53.480;10.004;2024-03-29T11:06:39;13.90;99.90
7206;DHT22;3644;53.480;10.004;2024-03-29T11:09:09;14.00;99.90
7206;DHT22;3644;53.480;10.004;2024-03-29T11:11:37;14.10;99.90
7206;DHT22;3644;53.480;10.004;2024-03-29T11:14:10;14.10;99.90
7206;DHT22;3644;53.480;10.004;2024-03-29T11:16:39;14.20;99.90
7206;DHT22;3644;53.480;10.004;2024-03-29T11:19:12;14.20;99.90
7206;DHT22;3644;53.480;10.004;2024-03-29T11:21:38;14.20;99.90
7206;DHT22;3644;53.480;10.004;2024-03-29T11:24:05;14.30;99.90
7206;DHT22;3644;53.480;10.004;2024-03-29T11:26:30;14.40;99.90
7206;DHT22;3644;53.480;10.004;2024-03-29T11:28:56;14.40;99.90
7206;DHT22;3644;53.480;10.004;2024-03-29T11:31:24;14.30;99.90
7206;DHT22;3644;53.480;10.004;2024-03-29T11:33:50;14.50;99.90
7206;DHT22;3644;53.480;10.004;2024-03-29T11:36:22;14.60;99.90
7206;DHT22;3644;53.480;10.004;2024-03-29T11:38:51;14.80;99.90
7206;DHT22;3644;53.480;10.004;2024-03-29T11:41:19;15.00;99.90
7206;DHT22;3644;53.480;10.004;2024-03-29T11:43:47;15.00;99.90
7206;DHT22;3644;53.480;10.004;2024-03-29T11:46:13;14.80;99.90
7206;DHT22;3644;53.480;10.004;2024-03-29T11:48:40;14.90;99.90
7206;DHT22;3644;53.480;10.004;2024-03-29T11:51:07;15.10;99.90
7206;DHT22;3644;53.480;10.004;2024-03-29T11:53:35;15.30;99.90
7206;DHT22;3644;53.480;10.004;2024-03-29T11:56:02;15.30;99.90
7206;DHT22;3644;53.480;10.004;2024-03-29T11:58:29;15.20;99.90
7206;DHT22;3644;53.480;10.004;2024-03-29T12:00:56;15.10;99.90
7206;DHT22;3644;53.480;10.004;2024-03-29T12:03:29;15.00;99.90
7206;DHT22;3644;53.480;10.004;2024-03-29T12:05:56;15.10;99.90
7206;DHT22;3644;53.480;10.004;2024-03-29T12:08:28;15.40;99.90
7206;DHT22;3644;53.480;10.004;2024-03-29T12:10:54;15.40;99.90
7206;DHT22;3644;53.480;10.004;2024-03-29T12:13:19;15.50;99.90
7206;DHT22;3644;53.480;10.004;2024-03-29T12:15:45;15.60;99.90
7206;DHT22;3644;53.480;10.004;2024-03-29T12:18:10;15.80;99.90
7206;DHT22;3644;53.480;10.004;2024-03-29T12:20:38;15.90;99.90
7206;DHT22;3644;53.480;10.004;2024-03-29T12:23:09;16.10;99.90
7206;DHT22;3644;53.480;10.004;2024-03-29T12:25:35;16.20;99.90
7206;DHT22;3644;53.480;10.004;2024-03-29T12:28:01;16.30;99.90
7206;DHT22;3644;53.480;10.004;2024-03-29T12:30:27;16.20;99.90
7206;DHT22;3644;53.480;10.004;2024-03-29T12:35:32;16.50;99.90
7206;DHT22;3644;53.480;10.004;2024-03-29T12:38:02;16.60;99.90
7206;DHT22;3644;53.480;10.004;2024-03-29T12:40:29;16.60;99.90
7206;DHT22;3644;53.480;10.004;2024-03-29T12:42:57;16.40;99.90
7206;DHT22;3644;53.480;10.004;2024-03-29T12:45:24;16.50;99.90
7206;DHT22;3644;53.480;10.004;2024-03-29T12:47:50;16.60;99.90
7206;DHT22;3644;53.480;10.004;2024-03-29T12:50:27;16.60;99.90
7206;DHT22;3644;53.480;10.004;2024-03-29T12:53:12;16.50;99.90
7206;DHT22;3644;53.480;10.004;2024-03-29T12:55:40;16.40;99.90
7206;DHT22;3644;53.480;10.004;2024-03-29T12:58:07;16.60;99.90
7206;DHT22;3644;53.480;10.004;2024-03-29T13:00:35;16.70;99.90
7206;DHT22;3644;53.480;10.004;2024-03-29T13:03:01;16.60;99.90
7206;DHT22;3644;53.480;10.004;2024-03-29T13:05:27;16.80;99.90
7206;DHT22;3644;53.480;10.004;2024-03-29T13:08:03;16.60;99.90
7206;DHT22;3644;53.480;10.004;2024-03-29T13:10:29;16.80;99.90
7206;DHT22;3644;53.480;10.004;2024-03-29T13:12:55;16.80;99.90
7206;DHT22;3644;53.480;10.004;2024-03-29T13:15:22;16.80;99.90
7206;DHT22;3644;53.480;10.004;2024-03-29T13:17:50;16.90;99.90
7206;DHT22;3644;53.480;10.004;2024-03-29T13:20:16;16.90;99.90
7206;DHT22;3644;53.480;10.004;2024-03-29T13:22:43;16.80;99.90
7206;DHT22;3644;53.480;10.004;2024-03-29T13:25:11;16.80;99.90
7206;DHT22;3644;53.480;10.004;2024-03-29T13:27:40;16.90;99.90
7206;DHT22;3644;53.480;10.004;2024-03-29T13:30:07;16.80;99.90
7206;DHT22;3644;53.480;10.004;2024-03-29T13:32:40;16.60;99.90
7206;DHT22;3644;53.480;10.004;2024-03-29T13:35:06;16.70;99.90
7206;DHT22;3644;53.480;10.004;2024-03-29T13:37:36;16.40;99.90
7206;DHT22;3644;53.480;10.004;2024-03-29T13:40:02;16.60;99.90
7206;DHT22;3644;53.480;10.004;2024-03-29T13:42:29;16.60;99.90
7206;DHT22;3644;53.480;10.004;2024-03-29T13:44:55;16.60;99.90
7206;DHT22;3644;53.480;10.004;2024-03-29T13:47:20;16.70;99.90
7206;DHT22;3644;53.480;10.004;2024-03-29T13:49:46;16.80;99.90
7206;DHT22;3644;53.480;10.004;2024-03-29T13:52:14;16.80;99.90
7206;DHT22;3644;53.480;10.004;2024-03-29T13:54:43;17.10;99.90
7206;DHT22;3644;53.480;10.004;2024-03-29T13:57:13;17.20;99.90
7206;DHT22;3644;53.480;10.004;2024-03-29T13:59:39;17.30;99.90
7206;DHT22;3644;53.480;10.004;2024-03-29T14:02:05;17.50;99.90
7206;DHT22;3644;53.480;10.004;2024-03-29T14:04:30;17.40;99.90
7206;DHT22;3644;53.480;10.004;2024-03-29T14:06:56;17.30;99.90
7206;DHT22;3644;53.480;10.004;2024-03-29T14:09:22;17.30;99.90
7206;DHT22;3644;53.480;10.004;2024-03-29T14:11:47;17.30;99.90
7206;DHT22;3644;53.480;10.004;2024-03-29T14:14:13;17.30;99.90
7206;DHT22;3644;53.480;10.004;2024-03-29T14:16:38;17.30;99.90
7206;DHT22;3644;53.480;10.004;2024-03-29T14:19:04;17.30;99.90
7206;DHT22;3644;53.480;10.004;2024-03-29T14:21:30;17.20;99.90
7206;DHT22;3644;53.480;10.004;2024-03-29T14:23:57;17.20;99.90
7206;DHT22;3644;53.480;10.004;2024-03-29T14:26:22;17.30;99.90
7206;DHT22;3644;53.480;10.004;2024-03-29T14:28:48;17.30;99.90
7206;DHT22;3644;53.480;10.004;2024-03-29T14:31:14;17.60;99.90
7206;DHT22;3644;53.480;10.004;2024-03-29T14:33:39;17.80;99.90
7206;DHT22;3644;53.480;10.004;2024-03-29T14:36:05;17.90;99.90
7206;DHT22;3644;53.480;10.004;2024-03-29T14:38:30;17.90;99.90
7206;DHT22;3644;53.480;10.004;2024-03-29T14:40:56;17.80;99.90
7206;DHT22;3644;53.480;10.004;2024-03-29T14:43:21;17.70;99.90
7206;DHT22;3644;53.480;10.004;2024-03-29T14:45:47;18.00;99.90
7206;DHT22;3644;53.480;10.004;2024-03-29T14:48:16;17.80;99.90
7206;DHT22;3644;53.480;10.004;2024-03-29T14:50:42;17.70;99.90
7206;DHT22;3644;53.480;10.004;2024-03-29T14:53:08;17.70;99.90
7206;DHT22;3644;53.480;10.004;2024-03-29T14:55:33;17.30;99.90
7206;DHT22;3644;53.480;10.004;2024-03-29T14:58:01;17.40;99.90
7206;DHT22;3644;53.480;10.004;2024-03-29T15:00:27;17.50;99.90
7206;DHT22;3644;53.480;10.004;2024-03-29T15:02:52;17.50;99.90
7206;DHT22;3644;53.480;10.004;2024-03-29T15:05:18;17.40;99.90
7206;DHT22;3644;53.480;10.004;2024-03-29T15:07:43;17.50;99.90
7206;DHT22;3644;53.480;10.004;2024-03-29T15:10:09;17.40;99.90
7206;DHT22;3644;53.480;10.004;2024-03-29T15:12:37;17.60;99.90
7206;DHT22;3644;53.480;10.004;2024-03-29T15:15:04;17.20;99.90
7206;DHT22;3644;53.480;10.004;2024-03-29T15:17:30;16.90;99.90
7206;DHT22;3644;53.480;10.004;2024-03-29T15:19:56;17.00;99.90
7206;DHT22;3644;53.480;10.004;2024-03-29T15:22:21;17.30;99.90
7206;DHT22;3644;53.480;10.004;2024-03-29T15:24:47;17.50;99.90
7206;DHT22;3644;53.480;10.004;2024-03-29T15:27:12;17.60;99.90
7206;DHT22;3644;53.480;10.004;2024-03-29T15:29:56;17.60;99.90
7206;DHT22;3644;53.480;10.004;2024-03-29T15:32:24;17.70;99.90
7206;DHT22;3644;53.480;10.004;2024-03-29T15:34:54;17.70;99.90
7206;DHT22;3644;53.480;10.004;2024-03-29T15:37:20;17.60;99.90
7206;DHT22;3644;53.480;10.004;2024-03-29T15:39:46;17.50;99.90
7206;DHT22;3644;53.480;10.004;2024-03-29T15:42:12;17.60;99.90
7206;DHT22;3644;53.480;10.004;2024-03-29T15:44:38;17.50;99.90
7206;DHT22;3644;53.480;10.004;2024-03-29T15:47:04;17.40;99.90
7206;DHT22;3644;53.480;10.004;2024-03-29T15:49:29;17.60;99.90
7206;DHT22;3644;53.480;10.004;2024-03-29T15:51:55;17.40;99.90
7206;DHT22;3644;53.480;10.004;2024-03-29T15:54:20;17.10;99.90
7206;DHT22;3644;53.480;10.004;2024-03-29T15:56:48;17.10;99.90
7206;DHT22;3644;53.480;10.004;2024-03-29T15:59:14;16.80;99.90
7206;DHT22;3644;53.480;10.004;2024-03-29T16:01:39;17.00;99.90
7206;DHT22;3644;53.480;10.004;2024-03-29T16:04:05;17.10;99.90
7206;DHT22;3644;53.480;10.004;2024-03-29T16:06:32;17.20;99.90
7206;DHT22;3644;53.480;10.004;2024-03-29T16:08:57;17.20;99.90
7206;DHT22;3644;53.480;10.004;2024-03-29T16:11:23;17.10;99.90
7206;DHT22;3644;53.480;10.004;2024-03-29T16:13:48;17.40;99.90
7206;DHT22;3644;53.480;10.004;2024-03-29T16:16:14;17.40;99.90
7206;DHT22;3644;53.480;10.004;2024-03-29T16:18:39;17.60;99.90
7206;DHT22;3644;53.480;10.004;2024-03-29T16:21:05;17.70;99.90
7206;DHT22;3644;53.480;10.004;2024-03-29T16:23:30;17.70;99.90
7206;DHT22;3644;53.480;10.004;2024-03-29T16:25:58;17.60;99.90
7206;DHT22;3644;53.480;10.004;2024-03-29T16:28:24;17.40;99.90
7206;DHT22;3644;53.480;10.004;2024-03-29T16:30:50;17.50;99.90
7206;DHT22;3644;53.480;10.004;2024-03-29T16:33:16;17.60;99.90
7206;DHT22;3644;53.480;10.004;2024-03-29T16:35:42;17.70;99.90
7206;DHT22;3644;53.480;10.004;2024-03-29T16:38:09;17.70;99.90
7206;DHT22;3644;53.480;10.004;2024-03-29T16:40:35;17.40;99.90
7206;DHT22;3644;53.480;10.004;2024-03-29T16:43:01;17.50;99.90
7206;DHT22;3644;53.480;10.004;2024-03-29T16:45:27;17.50;99.90
7206;DHT22;3644;53.480;10.004;2024-03-29T16:47:53;17.50;99.90
7206;DHT22;3644;53.480;10.004;2024-03-29T16:50:18;17.50;99.90
7206;DHT22;3644;53.480;10.004;2024-03-29T16:52:44;17.60;99.90
7206;DHT22;3644;53.480;10.004;2024-03-29T16:55:09;17.60;99.90
7206;DHT22;3644;53.480;10.004;2024-03-29T16:57:36;17.50;99.90
7206;DHT22;3644;53.480;10.004;2024-03-29T17:00:02;17.50;99.90
7206;DHT22;3644;53.480;10.004;2024-03-29T17:02:28;17.40;99.90
7206;DHT22;3644;53.480;10.004;2024-03-29T17:04:54;17.40;99.90
7206;DHT22;3644;53.480;10.004;2024-03-29T17:07:19;17.50;99.90
7206;DHT22;3644;53.480;10.004;2024-03-29T17:09:45;17.40;99.90
7206;DHT22;3644;53.480;10.004;2024-03-29T17:12:11;17.30;99.90
7206;DHT22;3644;53.480;10.004;2024-03-29T17:14:38;17.40;99.90
7206;DHT22;3644;53.480;10.004;2024-03-29T17:17:04;17.40;99.90
7206;DHT22;3644;53.480;10.004;2024-03-29T17:19:31;17.60;99.90
7206;DHT22;3644;53.480;10.004;2024-03-29T17:21:56;17.50;99.90
7206;DHT22;3644;53.480;10.004;2024-03-29T17:24:22;17.40;99.90
7206;DHT22;3644;53.480;10.004;2024-03-29T17:26:48;17.20;99.90
7206;DHT22;3644;53.480;10.004;2024-03-29T17:29:13;17.20;99.90
7206;DHT22;3644;53.480;10.004;2024-03-29T17:31:40;17.10;99.90
7206;DHT22;3644;53.480;10.004;2024-03-29T17:34:09;17.10;99.90
7206;DHT22;3644;53.480;10.004;2024-03-29T17:36:41;17.10;99.90
7206;DHT22;3644;53.480;10.004;2024-03-29T17:39:07;17.00;99.90
7206;DHT22;3644;53.480;10.004;2024-03-29T17:41:43;16.90;99.90
7206;DHT22;3644;53.480;10.004;2024-03-29T17:44:10;16.80;99.90
7206;DHT22;3644;53.480;10.004;2024-03-29T17:46:38;16.80;99.90
7206;DHT22;3644;53.480;10.004;2024-03-29T17:49:04;16.80;99.90
7206;DHT22;3644;53.480;10.004;2024-03-29T17:51:29;16.70;99.90
7206;DHT22;3644;53.480;10.004;2024-03-29T17:53:55;16.80;99.90
7206;DHT22;3644;53.480;10.004;2024-03-29T17:56:21;16.70;99.90
7206;DHT22;3644;53.480;10.004;2024-03-29T17:58:46;16.60;99.90
7206;DHT22;3644;53.480;10.004;2024-03-29T18:01:13;16.50;99.90
7206;DHT22;3644;53.480;10.004;2024-03-29T18:03:40;16.50;99.90
7206;DHT22;3644;53.480;10.004;2024-03-29T18:06:06;16.40;99.90
7206;DHT22;3644;53.480;10.004;2024-03-29T18:08:32;16.40;99.90
7206;DHT22;3644;53.480;10.004;2024-03-29T18:10:58;16.30;99.90
7206;DHT22;3644;53.480;10.004;2024-03-29T18:13:23;16.30;99.90
7206;DHT22;3644;53.480;10.004;2024-03-29T18:15:49;16.20;99.90
7206;DHT22;3644;53.480;10.004;2024-03-29T18:18:14;16.10;99.90
7206;DHT22;3644;53.480;10.004;2024-03-29T18:20:41;16.00;99.90
7206;DHT22;3644;53.480;10.004;2024-03-29T18:23:07;16.00;99.90
7206;DHT22;3644;53.480;10.004;2024-03-29T18:25:32;16.00;99.90
7206;DHT22;3644;53.480;10.004;2024-03-29T18:28:00;15.90;99.90
7206;DHT22;3644;53.480;10.004;2024-03-29T18:30:26;15.80;99.90
7206;DHT22;3644;53.480;10.004;2024-03-29T18:32:52;15.80;99.90
7206;DHT22;3644;53.480;10.004;2024-03-29T18:35:18;15.70;99.90
7206;DHT22;3644;53.480;10.004;2024-03-29T18:37:43;15.60;99.90
7206;DHT22;3644;53.480;10.004;2024-03-29T18:40:10;15.70;99.90
7206;DHT22;3644;53.480;10.004;2024-03-29T18:42:36;15.60;99.90
7206;DHT22;3644;53.480;10.004;2024-03-29T18:45:01;15.50;99.90
7206;DHT22;3644;53.480;10.004;2024-03-29T18:47:28;15.40;99.90
7206;DHT22;3644;53.480;10.004;2024-03-29T18:49:54;15.50;99.90
7206;DHT22;3644;53.480;10.004;2024-03-29T18:52:19;15.30;99.90
7206;DHT22;3644;53.480;10.004;2024-03-29T18:54:45;15.40;99.90
7206;DHT22;3644;53.480;10.004;2024-03-29T18:57:11;15.30;99.90
7206;DHT22;3644;53.480;10.004;2024-03-29T18:59:36;15.20;99.90
7206;DHT22;3644;53.480;10.004;2024-03-29T19:02:07;15.00;99.90
7206;DHT22;3644;53.480;10.004;2024-03-29T19:04:33;15.00;99.90
7206;DHT22;3644;53.480;10.004;2024-03-29T19:07:02;14.80;99.90
7206;DHT22;3644;53.480;10.004;2024-03-29T19:09:28;14.80;99.90
7206;DHT22;3644;53.480;10.004;2024-03-29T19:11:54;14.70;99.90
7206;DHT22;3644;53.480;10.004;2024-03-29T19:14:20;14.70;99.90
7206;DHT22;3644;53.480;10.004;2024-03-29T19:16:49;14.70;99.90
7206;DHT22;3644;53.480;10.004;2024-03-29T19:19:19;14.70;99.90
7206;DHT22;3644;53.480;10.004;2024-03-29T19:21:50;14.60;99.90
7206;DHT22;3644;53.480;10.004;2024-03-29T19:24:20;14.60;99.90
7206;DHT22;3644;53.480;10.004;2024-03-29T19:26:46;14.40;99.90
7206;DHT22;3644;53.480;10.004;2024-03-29T19:29:12;14.40;99.90
7206;DHT22;3644;53.480;10.004;2024-03-29T19:31:40;14.40;99.90
7206;DHT22;3644;53.480;10.004;2024-03-29T19:34:07;14.40;99.90
7206;DHT22;3644;53.480;10.004;2024-03-29T19:36:33;14.40;99.90
7206;DHT22;3644;53.480;10.004;2024-03-29T19:38:58;14.40;99.90
7206;DHT22;3644;53.480;10.004;2024-03-29T19:41:24;14.50;99.90
7206;DHT22;3644;53.480;10.004;2024-03-29T19:43:50;14.60;99.90
7206;DHT22;3644;53.480;10.004;2024-03-29T19:46:15;14.50;99.90
7206;DHT22;3644;53.480;10.004;2024-03-29T19:48:41;14.50;99.90
7206;DHT22;3644;53.480;10.004;2024-03-29T19:51:06;14.50;99.90
7206;DHT22;3644;53.480;10.004;2024-03-29T19:53:32;14.30;99.90
7206;DHT22;3644;53.480;10.004;2024-03-29T19:55:57;14.30;99.90
7206;DHT22;3644;53.480;10.004;2024-03-29T19:58:23;14.30;99.90
7206;DHT22;3644;53.480;10.004;2024-03-29T20:00:50;14.30;99.90
7206;DHT22;3644;53.480;10.004;2024-03-29T20:03:16;14.30;99.90
7206;DHT22;3644;53.480;10.004;2024-03-29T20:05:42;14.30;99.90
7206;DHT22;3644;53.480;10.004;2024-03-29T20:08:07;14.40;99.90
7206;DHT22;3644;53.480;10.004;2024-03-29T20:10:39;14.20;99.90
7206;DHT22;3644;53.480;10.004;2024-03-29T20:13:06;14.20;99.90
7206;DHT22;3644;53.480;10.004;2024-03-29T20:15:39;14.20;99.90
7206;DHT22;3644;53.480;10.004;2024-03-29T20:18:09;14.30;99.90
7206;DHT22;3644;53.480;10.004;2024-03-29T20:20:35;14.20;99.90
7206;DHT22;3644;53.480;10.004;2024-03-29T20:23:01;14.20;99.90
7206;DHT22;3644;53.480;10.004;2024-03-29T20:25:28;14.20;99.90
7206;DHT22;3644;53.480;10.004;2024-03-29T20:27:54;14.10;99.90
7206;DHT22;3644;53.480;10.004;2024-03-29T20:30:20;14.10;99.90
7206;DHT22;3644;53.480;10.004;2024-03-29T20:32:46;14.10;99.90
7206;DHT22;3644;53.480;10.004;2024-03-29T20:35:12;14.10;99.90
7206;DHT22;3644;53.480;10.004;2024-03-29T20:37:37;14.10;99.90
7206;DHT22;3644;53.480;10.004;2024-03-29T20:40:03;14.00;99.90
7206;DHT22;3644;53.480;10.004;2024-03-29T20:42:29;14.00;99.90
7206;DHT22;3644;53.480;10.004;2024-03-29T20:44:54;14.10;99.90
7206;DHT22;3644;53.480;10.004;2024-03-29T20:47:21;14.10;99.90
7206;DHT22;3644;53.480;10.004;2024-03-29T20:49:50;13.90;99.90
7206;DHT22;3644;53.480;10.004;2024-03-29T20:52:15;14.10;99.90
7206;DHT22;3644;53.480;10.004;2024-03-29T20:54:43;14.10;99.90
